sensor_id;sensor_type;location;lat;lon;timestamp;P1;durP1;ratioP1;P2;durP2;ratioP2
68923;SDS011;55961;52.156;20.942;2024-01-27T00:02:04;8.93;;;3.40;;
68923;SDS011;55961;52.156;20.942;2024-01-27T00:04:30;7.10;;;1.80;;
68923;SDS011;55961;52.156;20.942;2024-01-27T00:06:56;7.70;;;1.20;;
68923;SDS011;55961;52.156;20.942;2024-01-27T00:09:22;4.95;;;1.33;;
68923;SDS011;55961;52.156;20.942;2024-01-27T00:11:48;4.38;;;1.08;;
68923;SDS011;55961;52.156;20.942;2024-01-27T00:14:13;9.57;;;1.77;;
68923;SDS011;55961;52.156;20.942;2024-01-27T00:16:39;8.40;;;1.50;;
68923;SDS011;55961;52.156;20.942;2024-01-27T00:19:05;9.35;;;1.27;;
68923;SDS011;55961;52.156;20.942;2024-01-27T00:21:31;6.95;;;1.25;;
68923;SDS011;55961;52.156;20.942;2024-01-27T00:23:57;7.17;;;1.63;;
68923;SDS011;55961;52.156;20.942;2024-01-27T00:26:26;4.93;;;1.08;;
68923;SDS011;55961;52.156;20.942;2024-01-27T00:28:53;7.50;;;0.75;;
68923;SDS011;55961;52.156;20.942;2024-01-27T00:31:19;7.72;;;0.85;;
68923;SDS011;55961;52.156;20.942;2024-01-27T00:33:45;5.27;;;1.20;;
68923;SDS011;55961;52.156;20.942;2024-01-27T00:36:11;6.38;;;0.47;;
68923;SDS011;55961;52.156;20.942;2024-01-27T00:38:37;5.85;;;0.45;;
68923;SDS011;55961;52.156;20.942;2024-01-27T00:41:04;2.47;;;0.20;;
68923;SDS011;55961;52.156;20.942;2024-01-27T00:43:30;5.38;;;0.50;;
68923;SDS011;55961;52.156;20.942;2024-01-27T00:45:56;10.45;;;0.60;;
68923;SDS011;55961;52.156;20.942;2024-01-27T00:48:22;7.82;;;0.90;;
68923;SDS011;55961;52.156;20.942;2024-01-27T00:50:48;7.03;;;0.80;;
68923;SDS011;55961;52.156;20.942;2024-01-27T00:53:14;5.63;;;0.35;;
68923;SDS011;55961;52.156;20.942;2024-01-27T00:55:40;5.32;;;0.52;;
68923;SDS011;55961;52.156;20.942;2024-01-27T00:58:07;3.85;;;0.40;;
68923;SDS011;55961;52.156;20.942;2024-01-27T01:00:33;6.30;;;0.60;;
68923;SDS011;55961;52.156;20.942;2024-01-27T01:02:59;7.53;;;0.73;;
68923;SDS011;55961;52.156;20.942;2024-01-27T01:05:26;5.90;;;0.60;;
68923;SDS011;55961;52.156;20.942;2024-01-27T01:07:52;5.93;;;0.50;;
68923;SDS011;55961;52.156;20.942;2024-01-27T01:10:18;3.30;;;0.53;;
68923;SDS011;55961;52.156;20.942;2024-01-27T01:12:44;7.75;;;1.02;;
68923;SDS011;55961;52.156;20.942;2024-01-27T01:15:10;6.70;;;0.73;;
68923;SDS011;55961;52.156;20.942;2024-01-27T01:17:36;5.80;;;0.80;;
68923;SDS011;55961;52.156;20.942;2024-01-27T01:20:02;4.32;;;0.73;;
68923;SDS011;55961;52.156;20.942;2024-01-27T01:22:28;4.85;;;0.52;;
68923;SDS011;55961;52.156;20.942;2024-01-27T01:24:54;3.95;;;0.35;;
68923;SDS011;55961;52.156;20.942;2024-01-27T01:27:19;5.47;;;0.40;;
68923;SDS011;55961;52.156;20.942;2024-01-27T01:29:46;6.90;;;0.82;;
68923;SDS011;55961;52.156;20.942;2024-01-27T01:32:12;7.95;;;0.85;;
68923;SDS011;55961;52.156;20.942;2024-01-27T01:34:38;5.83;;;0.63;;
68923;SDS011;55961;52.156;20.942;2024-01-27T01:37:04;4.13;;;0.55;;
68923;SDS011;55961;52.156;20.942;2024-01-27T01:39:30;5.40;;;0.65;;
68923;SDS011;55961;52.156;20.942;2024-01-27T01:41:56;10.20;;;0.60;;
68923;SDS011;55961;52.156;20.942;2024-01-27T01:44:22;7.03;;;0.70;;
68923;SDS011;55961;52.156;20.942;2024-01-27T01:46:50;7.60;;;0.40;;
68923;SDS011;55961;52.156;20.942;2024-01-27T01:49:16;11.32;;;0.90;;
68923;SDS011;55961;52.156;20.942;2024-01-27T01:51:42;4.90;;;0.70;;
68923;SDS011;55961;52.156;20.942;2024-01-27T01:54:08;7.90;;;0.65;;
68923;SDS011;55961;52.156;20.942;2024-01-27T01:56:34;6.07;;;0.30;;
68923;SDS011;55961;52.156;20.942;2024-01-27T01:59:01;5.77;;;0.30;;
68923;SDS011;55961;52.156;20.942;2024-01-27T02:01:26;9.38;;;0.40;;
68923;SDS011;55961;52.156;20.942;2024-01-27T02:03:56;8.15;;;0.75;;
68923;SDS011;55961;52.156;20.942;2024-01-27T02:06:23;9.25;;;0.47;;
68923;SDS011;55961;52.156;20.942;2024-01-27T02:08:49;8.03;;;0.57;;
68923;SDS011;55961;52.156;20.942;2024-01-27T02:11:16;11.75;;;0.90;;
68923;SDS011;55961;52.156;20.942;2024-01-27T02:13:42;10.68;;;0.75;;
68923;SDS011;55961;52.156;20.942;2024-01-27T02:16:08;7.07;;;0.50;;
68923;SDS011;55961;52.156;20.942;2024-01-27T02:18:34;8.57;;;1.08;;
68923;SDS011;55961;52.156;20.942;2024-01-27T02:21:00;10.83;;;1.57;;
68923;SDS011;55961;52.156;20.942;2024-01-27T02:23:26;10.95;;;1.30;;
68923;SDS011;55961;52.156;20.942;2024-01-27T02:25:52;12.50;;;1.83;;
68923;SDS011;55961;52.156;20.942;2024-01-27T02:28:18;7.10;;;1.07;;
68923;SDS011;55961;52.156;20.942;2024-01-27T02:30:44;10.27;;;1.98;;
68923;SDS011;55961;52.156;20.942;2024-01-27T02:33:09;8.35;;;1.52;;
68923;SDS011;55961;52.156;20.942;2024-01-27T02:35:35;13.63;;;1.60;;
68923;SDS011;55961;52.156;20.942;2024-01-27T02:38:01;9.87;;;1.70;;
68923;SDS011;55961;52.156;20.942;2024-01-27T02:40:28;11.13;;;1.92;;
68923;SDS011;55961;52.156;20.942;2024-01-27T02:42:53;5.55;;;0.70;;
68923;SDS011;55961;52.156;20.942;2024-01-27T02:45:20;10.50;;;1.90;;
68923;SDS011;55961;52.156;20.942;2024-01-27T02:47:45;6.70;;;0.82;;
68923;SDS011;55961;52.156;20.942;2024-01-27T02:50:12;9.63;;;0.88;;
68923;SDS011;55961;52.156;20.942;2024-01-27T02:52:38;19.40;;;2.42;;
68923;SDS011;55961;52.156;20.942;2024-01-27T02:55:04;11.90;;;2.00;;
68923;SDS011;55961;52.156;20.942;2024-01-27T02:57:30;10.73;;;1.30;;
68923;SDS011;55961;52.156;20.942;2024-01-27T02:59:56;15.48;;;1.88;;
68923;SDS011;55961;52.156;20.942;2024-01-27T03:02:22;8.90;;;1.30;;
68923;SDS011;55961;52.156;20.942;2024-01-27T03:04:48;11.33;;;1.27;;
68923;SDS011;55961;52.156;20.942;2024-01-27T03:07:14;18.40;;;2.17;;
68923;SDS011;55961;52.156;20.942;2024-01-27T03:09:40;13.10;;;2.30;;
68923;SDS011;55961;52.156;20.942;2024-01-27T03:12:06;10.53;;;1.07;;
68923;SDS011;55961;52.156;20.942;2024-01-27T03:14:33;16.02;;;1.75;;
68923;SDS011;55961;52.156;20.942;2024-01-27T03:16:58;11.55;;;1.50;;
68923;SDS011;55961;52.156;20.942;2024-01-27T03:19:24;11.57;;;1.73;;
68923;SDS011;55961;52.156;20.942;2024-01-27T03:21:50;9.67;;;1.30;;
68923;SDS011;55961;52.156;20.942;2024-01-27T03:24:16;10.75;;;2.50;;
68923;SDS011;55961;52.156;20.942;2024-01-27T03:26:42;9.73;;;1.65;;
68923;SDS011;55961;52.156;20.942;2024-01-27T03:29:08;11.80;;;1.80;;
68923;SDS011;55961;52.156;20.942;2024-01-27T03:31:34;8.85;;;1.25;;
68923;SDS011;55961;52.156;20.942;2024-01-27T03:34:00;9.73;;;2.35;;
68923;SDS011;55961;52.156;20.942;2024-01-27T03:36:27;16.45;;;2.78;;
68923;SDS011;55961;52.156;20.942;2024-01-27T03:38:55;9.67;;;1.07;;
68923;SDS011;55961;52.156;20.942;2024-01-27T03:41:22;12.00;;;1.15;;
68923;SDS011;55961;52.156;20.942;2024-01-27T03:43:48;10.18;;;1.10;;
68923;SDS011;55961;52.156;20.942;2024-01-27T03:46:14;13.43;;;2.17;;
68923;SDS011;55961;52.156;20.942;2024-01-27T03:48:40;8.40;;;1.33;;
68923;SDS011;55961;52.156;20.942;2024-01-27T03:51:06;13.18;;;1.48;;
68923;SDS011;55961;52.156;20.942;2024-01-27T03:53:32;13.57;;;1.50;;
68923;SDS011;55961;52.156;20.942;2024-01-27T03:55:58;8.23;;;1.52;;
68923;SDS011;55961;52.156;20.942;2024-01-27T03:58:28;15.63;;;1.43;;
68923;SDS011;55961;52.156;20.942;2024-01-27T04:00:54;13.30;;;1.15;;
68923;SDS011;55961;52.156;20.942;2024-01-27T04:03:20;6.60;;;1.35;;
68923;SDS011;55961;52.156;20.942;2024-01-27T04:05:46;6.65;;;0.80;;
68923;SDS011;55961;52.156;20.942;2024-01-27T04:08:12;9.13;;;1.80;;
68923;SDS011;55961;52.156;20.942;2024-01-27T04:10:38;7.32;;;1.02;;
68923;SDS011;55961;52.156;20.942;2024-01-27T04:13:04;13.95;;;1.67;;
68923;SDS011;55961;52.156;20.942;2024-01-27T04:15:32;7.75;;;0.60;;
68923;SDS011;55961;52.156;20.942;2024-01-27T04:18:07;6.40;;;0.85;;
68923;SDS011;55961;52.156;20.942;2024-01-27T04:20:36;12.00;;;2.03;;
68923;SDS011;55961;52.156;20.942;2024-01-27T04:23:02;8.95;;;1.58;;
68923;SDS011;55961;52.156;20.942;2024-01-27T04:25:28;12.80;;;1.52;;
68923;SDS011;55961;52.156;20.942;2024-01-27T04:27:54;10.70;;;1.33;;
68923;SDS011;55961;52.156;20.942;2024-01-27T04:30:20;8.23;;;0.93;;
68923;SDS011;55961;52.156;20.942;2024-01-27T04:32:46;8.23;;;2.00;;
68923;SDS011;55961;52.156;20.942;2024-01-27T04:35:14;5.53;;;1.17;;
68923;SDS011;55961;52.156;20.942;2024-01-27T04:37:40;11.40;;;1.85;;
68923;SDS011;55961;52.156;20.942;2024-01-27T04:40:06;10.67;;;1.23;;
68923;SDS011;55961;52.156;20.942;2024-01-27T04:42:33;10.82;;;1.52;;
68923;SDS011;55961;52.156;20.942;2024-01-27T04:44:59;13.48;;;1.23;;
68923;SDS011;55961;52.156;20.942;2024-01-27T04:47:26;10.13;;;1.63;;
68923;SDS011;55961;52.156;20.942;2024-01-27T04:49:52;10.67;;;1.43;;
68923;SDS011;55961;52.156;20.942;2024-01-27T04:52:18;7.82;;;1.55;;
68923;SDS011;55961;52.156;20.942;2024-01-27T04:54:43;6.10;;;1.40;;
68923;SDS011;55961;52.156;20.942;2024-01-27T04:57:09;8.38;;;1.40;;
68923;SDS011;55961;52.156;20.942;2024-01-27T04:59:35;12.07;;;2.47;;
68923;SDS011;55961;52.156;20.942;2024-01-27T05:02:01;8.23;;;1.50;;
68923;SDS011;55961;52.156;20.942;2024-01-27T05:04:27;8.70;;;2.07;;
68923;SDS011;55961;52.156;20.942;2024-01-27T05:06:53;10.07;;;1.07;;
68923;SDS011;55961;52.156;20.942;2024-01-27T05:09:19;9.10;;;0.93;;
68923;SDS011;55961;52.156;20.942;2024-01-27T05:11:45;10.88;;;1.27;;
68923;SDS011;55961;52.156;20.942;2024-01-27T05:14:11;8.63;;;1.37;;
68923;SDS011;55961;52.156;20.942;2024-01-27T05:16:37;13.63;;;1.27;;
68923;SDS011;55961;52.156;20.942;2024-01-27T05:19:03;10.18;;;1.73;;
68923;SDS011;55961;52.156;20.942;2024-01-27T05:21:29;5.93;;;1.13;;
68923;SDS011;55961;52.156;20.942;2024-01-27T05:23:54;8.87;;;1.23;;
68923;SDS011;55961;52.156;20.942;2024-01-27T05:26:21;11.13;;;1.20;;
68923;SDS011;55961;52.156;20.942;2024-01-27T05:28:46;6.75;;;1.40;;
68923;SDS011;55961;52.156;20.942;2024-01-27T05:31:12;10.00;;;1.10;;
68923;SDS011;55961;52.156;20.942;2024-01-27T05:33:38;10.90;;;1.45;;
68923;SDS011;55961;52.156;20.942;2024-01-27T05:36:07;8.18;;;1.13;;
68923;SDS011;55961;52.156;20.942;2024-01-27T05:38:33;12.60;;;1.47;;
68923;SDS011;55961;52.156;20.942;2024-01-27T05:41:02;8.32;;;1.38;;
68923;SDS011;55961;52.156;20.942;2024-01-27T05:43:28;11.70;;;1.85;;
68923;SDS011;55961;52.156;20.942;2024-01-27T05:45:55;11.07;;;1.27;;
68923;SDS011;55961;52.156;20.942;2024-01-27T05:48:20;7.13;;;0.90;;
68923;SDS011;55961;52.156;20.942;2024-01-27T05:50:56;13.43;;;1.55;;
68923;SDS011;55961;52.156;20.942;2024-01-27T05:53:23;12.23;;;1.13;;
68923;SDS011;55961;52.156;20.942;2024-01-27T05:55:49;12.35;;;1.50;;
68923;SDS011;55961;52.156;20.942;2024-01-27T05:58:15;7.00;;;0.60;;
68923;SDS011;55961;52.156;20.942;2024-01-27T06:00:44;8.25;;;0.85;;
68923;SDS011;55961;52.156;20.942;2024-01-27T06:03:10;9.57;;;1.35;;
68923;SDS011;55961;52.156;20.942;2024-01-27T06:05:36;7.38;;;1.35;;
68923;SDS011;55961;52.156;20.942;2024-01-27T06:08:03;7.13;;;0.50;;
68923;SDS011;55961;52.156;20.942;2024-01-27T06:10:30;6.80;;;0.70;;
68923;SDS011;55961;52.156;20.942;2024-01-27T06:12:57;8.85;;;1.05;;
68923;SDS011;55961;52.156;20.942;2024-01-27T06:15:23;9.32;;;1.27;;
68923;SDS011;55961;52.156;20.942;2024-01-27T06:17:49;10.85;;;0.95;;
68923;SDS011;55961;52.156;20.942;2024-01-27T06:20:15;9.50;;;1.10;;
68923;SDS011;55961;52.156;20.942;2024-01-27T06:22:44;9.32;;;0.90;;
68923;SDS011;55961;52.156;20.942;2024-01-27T06:25:10;11.13;;;0.90;;
68923;SDS011;55961;52.156;20.942;2024-01-27T06:27:36;9.50;;;0.85;;
68923;SDS011;55961;52.156;20.942;2024-01-27T06:30:07;11.80;;;1.23;;
68923;SDS011;55961;52.156;20.942;2024-01-27T06:32:35;9.13;;;1.03;;
68923;SDS011;55961;52.156;20.942;2024-01-27T06:35:01;11.75;;;1.27;;
68923;SDS011;55961;52.156;20.942;2024-01-27T06:37:28;8.52;;;0.85;;
68923;SDS011;55961;52.156;20.942;2024-01-27T06:39:54;6.13;;;0.65;;
68923;SDS011;55961;52.156;20.942;2024-01-27T06:42:20;9.10;;;1.60;;
68923;SDS011;55961;52.156;20.942;2024-01-27T06:44:46;11.85;;;1.67;;
68923;SDS011;55961;52.156;20.942;2024-01-27T06:47:11;9.23;;;1.83;;
68923;SDS011;55961;52.156;20.942;2024-01-27T06:49:37;8.00;;;0.93;;
68923;SDS011;55961;52.156;20.942;2024-01-27T06:52:04;7.57;;;1.37;;
68923;SDS011;55961;52.156;20.942;2024-01-27T06:54:30;10.70;;;1.38;;
68923;SDS011;55961;52.156;20.942;2024-01-27T06:56:56;6.90;;;1.25;;
68923;SDS011;55961;52.156;20.942;2024-01-27T06:59:24;9.18;;;1.83;;
68923;SDS011;55961;52.156;20.942;2024-01-27T07:01:50;9.53;;;1.33;;
68923;SDS011;55961;52.156;20.942;2024-01-27T07:04:16;9.45;;;1.00;;
68923;SDS011;55961;52.156;20.942;2024-01-27T07:06:42;8.93;;;1.02;;
68923;SDS011;55961;52.156;20.942;2024-01-27T07:09:09;9.73;;;1.45;;
68923;SDS011;55961;52.156;20.942;2024-01-27T07:11:35;6.10;;;0.90;;
68923;SDS011;55961;52.156;20.942;2024-01-27T07:14:02;7.43;;;1.15;;
68923;SDS011;55961;52.156;20.942;2024-01-27T07:16:34;14.52;;;1.15;;
68923;SDS011;55961;52.156;20.942;2024-01-27T07:19:00;10.32;;;1.30;;
68923;SDS011;55961;52.156;20.942;2024-01-27T07:21:26;5.93;;;0.97;;
68923;SDS011;55961;52.156;20.942;2024-01-27T07:23:54;14.73;;;1.95;;
68923;SDS011;55961;52.156;20.942;2024-01-27T07:26:20;12.30;;;1.80;;
68923;SDS011;55961;52.156;20.942;2024-01-27T07:28:46;5.07;;;1.05;;
68923;SDS011;55961;52.156;20.942;2024-01-27T07:31:13;10.93;;;0.83;;
68923;SDS011;55961;52.156;20.942;2024-01-27T07:33:39;8.65;;;1.15;;
68923;SDS011;55961;52.156;20.942;2024-01-27T07:36:05;12.30;;;1.77;;
68923;SDS011;55961;52.156;20.942;2024-01-27T07:38:31;10.93;;;1.53;;
68923;SDS011;55961;52.156;20.942;2024-01-27T07:40:57;7.32;;;1.17;;
68923;SDS011;55961;52.156;20.942;2024-01-27T07:43:24;7.88;;;1.30;;
68923;SDS011;55961;52.156;20.942;2024-01-27T07:45:50;11.45;;;1.55;;
68923;SDS011;55961;52.156;20.942;2024-01-27T07:48:18;11.97;;;1.87;;
68923;SDS011;55961;52.156;20.942;2024-01-27T07:50:44;11.57;;;1.60;;
68923;SDS011;55961;52.156;20.942;2024-01-27T07:53:14;11.07;;;1.38;;
68923;SDS011;55961;52.156;20.942;2024-01-27T07:55:40;7.80;;;1.13;;
68923;SDS011;55961;52.156;20.942;2024-01-27T07:58:06;9.47;;;1.60;;
68923;SDS011;55961;52.156;20.942;2024-01-27T08:00:32;5.72;;;1.20;;
68923;SDS011;55961;52.156;20.942;2024-01-27T08:02:58;10.48;;;1.50;;
68923;SDS011;55961;52.156;20.942;2024-01-27T08:05:24;8.05;;;1.35;;
68923;SDS011;55961;52.156;20.942;2024-01-27T08:07:51;7.67;;;1.73;;
68923;SDS011;55961;52.156;20.942;2024-01-27T08:10:17;7.70;;;1.40;;
68923;SDS011;55961;52.156;20.942;2024-01-27T08:12:43;8.52;;;1.95;;
68923;SDS011;55961;52.156;20.942;2024-01-27T08:15:08;4.63;;;0.90;;
68923;SDS011;55961;52.156;20.942;2024-01-27T08:17:35;8.45;;;1.23;;
68923;SDS011;55961;52.156;20.942;2024-01-27T08:20:00;16.95;;;2.70;;
68923;SDS011;55961;52.156;20.942;2024-01-27T08:22:27;7.32;;;1.50;;
68923;SDS011;55961;52.156;20.942;2024-01-27T08:24:54;8.27;;;1.90;;
68923;SDS011;55961;52.156;20.942;2024-01-27T08:27:20;8.67;;;1.70;;
68923;SDS011;55961;52.156;20.942;2024-01-27T08:29:46;8.32;;;1.67;;
68923;SDS011;55961;52.156;20.942;2024-01-27T08:32:12;8.90;;;1.88;;
68923;SDS011;55961;52.156;20.942;2024-01-27T08:34:37;8.83;;;1.50;;
68923;SDS011;55961;52.156;20.942;2024-01-27T08:37:13;7.43;;;1.80;;
68923;SDS011;55961;52.156;20.942;2024-01-27T08:39:45;8.07;;;1.52;;
68923;SDS011;55961;52.156;20.942;2024-01-27T08:42:11;13.18;;;2.65;;
68923;SDS011;55961;52.156;20.942;2024-01-27T08:44:37;10.47;;;2.80;;
68923;SDS011;55961;52.156;20.942;2024-01-27T08:47:04;6.13;;;1.50;;
68923;SDS011;55961;52.156;20.942;2024-01-27T08:49:31;13.02;;;2.83;;
68923;SDS011;55961;52.156;20.942;2024-01-27T08:51:57;9.50;;;2.15;;
68923;SDS011;55961;52.156;20.942;2024-01-27T08:54:23;10.68;;;3.45;;
68923;SDS011;55961;52.156;20.942;2024-01-27T08:56:51;10.77;;;3.40;;
68923;SDS011;55961;52.156;20.942;2024-01-27T08:59:17;14.45;;;3.97;;
68923;SDS011;55961;52.156;20.942;2024-01-27T09:01:43;9.50;;;1.60;;
68923;SDS011;55961;52.156;20.942;2024-01-27T09:04:09;11.33;;;2.17;;
68923;SDS011;55961;52.156;20.942;2024-01-27T09:06:35;12.43;;;3.10;;
68923;SDS011;55961;52.156;20.942;2024-01-27T09:09:01;10.00;;;2.03;;
68923;SDS011;55961;52.156;20.942;2024-01-27T09:11:28;10.68;;;3.35;;
68923;SDS011;55961;52.156;20.942;2024-01-27T09:13:55;11.40;;;3.15;;
68923;SDS011;55961;52.156;20.942;2024-01-27T09:16:22;13.47;;;3.50;;
68923;SDS011;55961;52.156;20.942;2024-01-27T09:18:48;17.92;;;3.30;;
68923;SDS011;55961;52.156;20.942;2024-01-27T09:21:15;15.63;;;3.95;;
68923;SDS011;55961;52.156;20.942;2024-01-27T09:23:48;16.67;;;4.10;;
68923;SDS011;55961;52.156;20.942;2024-01-27T09:26:14;10.95;;;3.33;;
68923;SDS011;55961;52.156;20.942;2024-01-27T09:28:43;11.60;;;3.37;;
68923;SDS011;55961;52.156;20.942;2024-01-27T09:31:11;12.88;;;4.30;;
68923;SDS011;55961;52.156;20.942;2024-01-27T09:33:37;12.30;;;3.70;;
68923;SDS011;55961;52.156;20.942;2024-01-27T09:36:03;15.90;;;5.45;;
68923;SDS011;55961;52.156;20.942;2024-01-27T09:38:29;21.77;;;7.93;;
68923;SDS011;55961;52.156;20.942;2024-01-27T09:40:55;13.02;;;4.22;;
68923;SDS011;55961;52.156;20.942;2024-01-27T09:43:21;15.95;;;5.57;;
68923;SDS011;55961;52.156;20.942;2024-01-27T09:45:55;12.70;;;4.20;;
68923;SDS011;55961;52.156;20.942;2024-01-27T09:48:21;9.50;;;3.20;;
68923;SDS011;55961;52.156;20.942;2024-01-27T09:50:48;10.05;;;2.92;;
68923;SDS011;55961;52.156;20.942;2024-01-27T09:53:16;10.18;;;2.85;;
68923;SDS011;55961;52.156;20.942;2024-01-27T09:55:43;12.07;;;3.35;;
68923;SDS011;55961;52.156;20.942;2024-01-27T09:58:10;6.80;;;1.98;;
68923;SDS011;55961;52.156;20.942;2024-01-27T10:00:37;11.47;;;3.43;;
68923;SDS011;55961;52.156;20.942;2024-01-27T10:03:04;4.57;;;1.38;;
68923;SDS011;55961;52.156;20.942;2024-01-27T10:05:32;6.80;;;2.45;;
68923;SDS011;55961;52.156;20.942;2024-01-27T10:07:58;11.13;;;2.67;;
68923;SDS011;55961;52.156;20.942;2024-01-27T10:10:24;5.72;;;1.65;;
68923;SDS011;55961;52.156;20.942;2024-01-27T10:12:52;9.43;;;2.47;;
68923;SDS011;55961;52.156;20.942;2024-01-27T10:15:24;8.88;;;2.53;;
68923;SDS011;55961;52.156;20.942;2024-01-27T10:17:51;5.78;;;1.88;;
68923;SDS011;55961;52.156;20.942;2024-01-27T10:20:17;6.93;;;2.42;;
68923;SDS011;55961;52.156;20.942;2024-01-27T10:22:44;8.00;;;2.70;;
68923;SDS011;55961;52.156;20.942;2024-01-27T10:25:11;5.30;;;1.70;;
68923;SDS011;55961;52.156;20.942;2024-01-27T10:27:37;8.45;;;2.00;;
68923;SDS011;55961;52.156;20.942;2024-01-27T10:30:04;7.03;;;2.50;;
68923;SDS011;55961;52.156;20.942;2024-01-27T10:32:32;8.07;;;1.88;;
68923;SDS011;55961;52.156;20.942;2024-01-27T10:35:02;5.30;;;1.30;;
68923;SDS011;55961;52.156;20.942;2024-01-27T10:37:34;6.20;;;1.90;;
68923;SDS011;55961;52.156;20.942;2024-01-27T10:40:01;7.32;;;1.83;;
68923;SDS011;55961;52.156;20.942;2024-01-27T10:42:34;7.32;;;1.95;;
68923;SDS011;55961;52.156;20.942;2024-01-27T10:45:00;6.90;;;2.47;;
68923;SDS011;55961;52.156;20.942;2024-01-27T10:47:29;7.60;;;2.20;;
68923;SDS011;55961;52.156;20.942;2024-01-27T10:49:56;6.88;;;2.40;;
68923;SDS011;55961;52.156;20.942;2024-01-27T10:52:25;7.78;;;3.22;;
68923;SDS011;55961;52.156;20.942;2024-01-27T10:55:01;5.28;;;2.20;;
68923;SDS011;55961;52.156;20.942;2024-01-27T10:57:31;4.77;;;0.90;;
68923;SDS011;55961;52.156;20.942;2024-01-27T11:00:02;7.07;;;2.10;;
68923;SDS011;55961;52.156;20.942;2024-01-27T11:02:34;7.00;;;2.15;;
68923;SDS011;55961;52.156;20.942;2024-01-27T11:05:04;6.22;;;2.08;;
68923;SDS011;55961;52.156;20.942;2024-01-27T11:07:33;8.82;;;2.17;;
68923;SDS011;55961;52.156;20.942;2024-01-27T11:10:00;6.07;;;2.17;;
68923;SDS011;55961;52.156;20.942;2024-01-27T11:12:27;7.50;;;2.28;;
68923;SDS011;55961;52.156;20.942;2024-01-27T11:14:54;11.77;;;3.05;;
68923;SDS011;55961;52.156;20.942;2024-01-27T11:17:20;6.03;;;2.83;;
68923;SDS011;55961;52.156;20.942;2024-01-27T11:19:46;10.07;;;4.00;;
68923;SDS011;55961;52.156;20.942;2024-01-27T11:22:26;7.88;;;3.40;;
68923;SDS011;55961;52.156;20.942;2024-01-27T11:24:53;7.53;;;2.70;;
68923;SDS011;55961;52.156;20.942;2024-01-27T11:27:34;5.72;;;1.90;;
68923;SDS011;55961;52.156;20.942;2024-01-27T11:30:01;12.68;;;3.38;;
68923;SDS011;55961;52.156;20.942;2024-01-27T11:32:27;8.53;;;3.70;;
68923;SDS011;55961;52.156;20.942;2024-01-27T11:34:53;6.53;;;2.22;;
68923;SDS011;55961;52.156;20.942;2024-01-27T11:37:19;7.57;;;2.80;;
68923;SDS011;55961;52.156;20.942;2024-01-27T11:39:50;6.55;;;2.20;;
68923;SDS011;55961;52.156;20.942;2024-01-27T11:42:18;5.38;;;2.03;;
68923;SDS011;55961;52.156;20.942;2024-01-27T11:44:44;4.60;;;1.37;;
68923;SDS011;55961;52.156;20.942;2024-01-27T11:47:17;3.35;;;0.82;;
68923;SDS011;55961;52.156;20.942;2024-01-27T11:49:50;4.28;;;1.70;;
68923;SDS011;55961;52.156;20.942;2024-01-27T11:52:20;6.03;;;1.90;;
68923;SDS011;55961;52.156;20.942;2024-01-27T11:54:53;4.78;;;1.52;;
68923;SDS011;55961;52.156;20.942;2024-01-27T11:57:23;4.20;;;1.23;;
68923;SDS011;55961;52.156;20.942;2024-01-27T11:59:52;6.72;;;2.38;;
68923;SDS011;55961;52.156;20.942;2024-01-27T12:02:19;7.13;;;2.72;;
68923;SDS011;55961;52.156;20.942;2024-01-27T12:04:45;7.55;;;2.75;;
68923;SDS011;55961;52.156;20.942;2024-01-27T12:07:13;4.35;;;1.52;;
68923;SDS011;55961;52.156;20.942;2024-01-27T12:09:39;5.33;;;1.90;;
68923;SDS011;55961;52.156;20.942;2024-01-27T12:12:06;5.57;;;2.05;;
68923;SDS011;55961;52.156;20.942;2024-01-27T12:17:09;4.57;;;1.50;;
68923;SDS011;55961;52.156;20.942;2024-01-27T12:19:36;5.28;;;1.42;;
68923;SDS011;55961;52.156;20.942;2024-01-27T12:22:03;6.10;;;2.57;;
68923;SDS011;55961;52.156;20.942;2024-01-27T12:24:29;9.43;;;2.80;;
68923;SDS011;55961;52.156;20.942;2024-01-27T12:26:59;7.32;;;3.10;;
68923;SDS011;55961;52.156;20.942;2024-01-27T12:29:25;9.48;;;3.30;;
68923;SDS011;55961;52.156;20.942;2024-01-27T12:31:51;5.30;;;2.28;;
68923;SDS011;55961;52.156;20.942;2024-01-27T12:34:18;6.53;;;2.40;;
68923;SDS011;55961;52.156;20.942;2024-01-27T12:36:45;7.25;;;2.53;;
68923;SDS011;55961;52.156;20.942;2024-01-27T12:39:10;8.18;;;3.90;;
68923;SDS011;55961;52.156;20.942;2024-01-27T12:41:36;5.38;;;1.92;;
68923;SDS011;55961;52.156;20.942;2024-01-27T12:44:02;8.87;;;3.17;;
68923;SDS011;55961;52.156;20.942;2024-01-27T12:46:29;6.10;;;2.30;;
68923;SDS011;55961;52.156;20.942;2024-01-27T12:48:58;7.13;;;2.95;;
68923;SDS011;55961;52.156;20.942;2024-01-27T12:51:26;6.97;;;2.97;;
68923;SDS011;55961;52.156;20.942;2024-01-27T12:53:52;7.17;;;2.87;;
68923;SDS011;55961;52.156;20.942;2024-01-27T12:56:18;8.07;;;2.53;;
68923;SDS011;55961;52.156;20.942;2024-01-27T12:58:44;7.70;;;2.60;;
68923;SDS011;55961;52.156;20.942;2024-01-27T13:01:10;9.33;;;2.67;;
68923;SDS011;55961;52.156;20.942;2024-01-27T13:03:36;9.70;;;3.42;;
68923;SDS011;55961;52.156;20.942;2024-01-27T13:06:02;9.18;;;4.28;;
68923;SDS011;55961;52.156;20.942;2024-01-27T13:08:28;8.32;;;3.95;;
68923;SDS011;55961;52.156;20.942;2024-01-27T13:10:55;10.77;;;6.67;;
68923;SDS011;55961;52.156;20.942;2024-01-27T13:13:20;8.30;;;3.85;;
68923;SDS011;55961;52.156;20.942;2024-01-27T13:15:46;6.28;;;2.60;;
68923;SDS011;55961;52.156;20.942;2024-01-27T13:18:12;7.70;;;3.23;;
68923;SDS011;55961;52.156;20.942;2024-01-27T13:20:39;4.80;;;2.20;;
68923;SDS011;55961;52.156;20.942;2024-01-27T13:23:07;5.32;;;2.50;;
68923;SDS011;55961;52.156;20.942;2024-01-27T13:25:33;7.97;;;3.88;;
68923;SDS011;55961;52.156;20.942;2024-01-27T13:27:59;10.55;;;4.72;;
68923;SDS011;55961;52.156;20.942;2024-01-27T13:30:25;6.93;;;3.67;;
68923;SDS011;55961;52.156;20.942;2024-01-27T13:32:52;8.48;;;3.70;;
68923;SDS011;55961;52.156;20.942;2024-01-27T13:35:18;7.50;;;2.40;;
68923;SDS011;55961;52.156;20.942;2024-01-27T13:37:44;5.30;;;1.98;;
68923;SDS011;55961;52.156;20.942;2024-01-27T13:40:11;7.57;;;3.60;;
68923;SDS011;55961;52.156;20.942;2024-01-27T13:42:37;5.97;;;3.00;;
68923;SDS011;55961;52.156;20.942;2024-01-27T13:45:03;7.88;;;3.28;;
68923;SDS011;55961;52.156;20.942;2024-01-27T13:47:30;6.43;;;2.28;;
68923;SDS011;55961;52.156;20.942;2024-01-27T13:49:56;4.97;;;2.00;;
68923;SDS011;55961;52.156;20.942;2024-01-27T13:52:23;6.95;;;2.90;;
68923;SDS011;55961;52.156;20.942;2024-01-27T13:54:49;7.30;;;3.70;;
68923;SDS011;55961;52.156;20.942;2024-01-27T13:57:15;13.13;;;4.40;;
68923;SDS011;55961;52.156;20.942;2024-01-27T13:59:41;22.63;;;7.90;;
68923;SDS011;55961;52.156;20.942;2024-01-27T14:02:07;10.85;;;4.55;;
68923;SDS011;55961;52.156;20.942;2024-01-27T14:04:34;12.68;;;4.68;;
68923;SDS011;55961;52.156;20.942;2024-01-27T14:07:00;10.50;;;3.78;;
68923;SDS011;55961;52.156;20.942;2024-01-27T14:09:34;18.73;;;10.30;;
68923;SDS011;55961;52.156;20.942;2024-01-27T14:12:01;9.88;;;4.68;;
68923;SDS011;55961;52.156;20.942;2024-01-27T14:14:27;11.50;;;4.80;;
68923;SDS011;55961;52.156;20.942;2024-01-27T14:16:53;9.35;;;4.13;;
68923;SDS011;55961;52.156;20.942;2024-01-27T14:19:19;10.88;;;5.55;;
68923;SDS011;55961;52.156;20.942;2024-01-27T14:21:45;10.57;;;3.93;;
68923;SDS011;55961;52.156;20.942;2024-01-27T14:24:11;10.23;;;5.10;;
68923;SDS011;55961;52.156;20.942;2024-01-27T14:26:37;14.73;;;6.87;;
68923;SDS011;55961;52.156;20.942;2024-01-27T14:29:03;7.67;;;3.20;;
68923;SDS011;55961;52.156;20.942;2024-01-27T14:31:29;6.03;;;2.00;;